createdAt,value
2018-05-02T00:00:44.626Z,66.21
2018-05-02T00:01:44.554Z,65.36
2018-05-02T00:02:44.498Z,65.83
2018-05-02T00:03:44.432Z,65.73
2018-05-02T00:04:44.367Z,65.26
2018-05-02T00:05:44.304Z,65.45
2018-05-02T00:06:44.238Z,64.87
2018-05-02T00:07:44.174Z,65.55
2018-05-02T00:08:44.111Z,65.45
2018-05-02T00:09:44.052Z,65.45
2018-05-02T00:10:43.984Z,64.69
2018-05-02T00:11:43.919Z,64.97
2018-05-02T00:12:43.860Z,65.07
2018-05-02T00:13:43.792Z,65.26
2018-05-02T00:14:43.731Z,64.97
2018-05-02T00:15:43.663Z,64.78
2018-05-02T00:16:43.601Z,64.31
2018-05-02T00:17:43.537Z,64.40
2018-05-02T00:18:43.473Z,64.97
2018-05-02T00:19:43.403Z,64.59
2018-05-02T00:20:43.346Z,65.45
2018-05-02T00:21:43.281Z,65.16
2018-05-02T00:22:43.217Z,64.78
2018-05-02T00:23:43.152Z,64.59
2018-05-02T00:24:43.090Z,65.55
2018-05-02T00:25:43.024Z,64.50
2018-05-02T00:26:42.965Z,64.59
2018-05-02T00:27:42.897Z,65.07
2018-05-02T00:28:42.887Z,64.97
2018-05-02T00:29:42.770Z,64.87
2018-05-02T00:30:42.705Z,64.78
2018-05-02T00:31:42.640Z,64.78
2018-05-02T00:32:42.578Z,65.07
2018-05-02T00:33:42.511Z,64.87
2018-05-02T00:34:42.451Z,64.50
2018-05-02T00:35:42.386Z,64.31
2018-05-02T00:36:42.321Z,64.40
2018-05-02T00:37:42.257Z,64.59
2018-05-02T00:38:42.193Z,64.78
2018-05-02T00:39:42.130Z,64.87
2018-05-02T00:40:42.068Z,65.16
2018-05-02T00:41:42.002Z,65.32
2018-05-02T00:42:41.939Z,65.07
2018-05-02T00:43:41.871Z,64.97
2018-05-02T00:44:41.812Z,64.78
2018-05-02T00:45:41.750Z,65.45
2018-05-02T00:46:41.683Z,65.26
2018-05-02T00:47:41.618Z,65.36
2018-05-02T00:48:41.556Z,64.50
2018-05-02T00:49:41.492Z,64.21
2018-05-02T00:50:41.428Z,63.73
2018-05-02T00:51:41.364Z,64.12
2018-05-02T00:52:41.299Z,63.92
2018-05-02T00:53:41.235Z,64.02
2018-05-02T00:54:41.174Z,63.80
2018-05-02T00:55:41.108Z,63.64
2018-05-02T00:56:41.043Z,63.23
2018-05-02T00:57:40.979Z,63.64
2018-05-02T00:58:40.918Z,63.32
2018-05-02T00:59:40.851Z,63.54
2018-05-02T01:00:40.791Z,63.45
2018-05-02T01:01:40.722Z,63.35
2018-05-02T01:02:40.661Z,63.64
2018-05-02T01:03:40.599Z,63.07
2018-05-02T01:04:40.533Z,62.88
2018-05-02T01:05:40.468Z,63.04
2018-05-02T01:06:40.404Z,62.94
2018-05-02T01:07:40.342Z,62.85
2018-05-02T01:08:40.275Z,62.65
2018-05-02T01:09:40.208Z,62.85
2018-05-02T01:10:40.148Z,62.75
2018-05-02T01:11:40.086Z,63.89
2018-05-02T01:12:40.020Z,64.56
2018-05-02T01:13:39.956Z,64.28
2018-05-02T01:14:39.891Z,64.37
2018-05-02T01:15:39.827Z,64.56
2018-05-02T01:16:39.764Z,64.18
2018-05-02T01:17:39.699Z,64.56
2018-05-02T01:18:39.635Z,64.08
2018-05-02T01:19:39.573Z,64.18
2018-05-02T01:20:39.509Z,63.13
2018-05-02T01:21:39.445Z,64.18
2018-05-02T01:22:39.379Z,63.23
2018-05-02T01:23:39.322Z,63.60
2018-05-02T01:24:39.257Z,63.42
2018-05-02T01:25:39.185Z,63.04
2018-05-02T01:26:39.127Z,62.75
2018-05-02T01:27:39.059Z,63.04
2018-05-02T01:28:38.995Z,63.51
2018-05-02T01:29:38.929Z,62.85
2018-05-02T01:30:38.866Z,63.13
2018-05-02T01:31:38.802Z,63.32
2018-05-02T01:32:38.740Z,63.13
2018-05-02T01:33:38.680Z,63.60
2018-05-02T01:34:38.612Z,64.47
2018-05-02T01:35:38.547Z,64.47
2018-05-02T01:36:38.482Z,64.08
2018-05-02T01:37:38.419Z,64.28
2018-05-02T01:38:38.354Z,64.56
2018-05-02T01:39:38.292Z,64.37
2018-05-02T01:40:38.227Z,64.56
2018-05-02T01:41:38.163Z,63.89
2018-05-02T01:42:38.099Z,63.60
2018-05-02T01:43:38.033Z,63.42
2018-05-02T01:44:37.970Z,63.99
2018-05-02T01:45:37.909Z,63.70
2018-05-02T01:46:37.845Z,63.45
2018-05-02T01:47:37.779Z,63.60
2018-05-02T01:48:37.714Z,63.60
2018-05-02T01:49:37.650Z,63.80
2018-05-02T01:50:37.584Z,64.47
2018-05-02T01:51:37.523Z,64.56
2018-05-02T01:52:37.458Z,64.18
2018-05-02T01:53:37.395Z,64.28
2018-05-02T01:54:37.329Z,64.28
2018-05-02T01:55:37.266Z,64.56
2018-05-02T01:56:37.208Z,64.75
2018-05-02T01:57:37.137Z,65.13
2018-05-02T01:58:37.076Z,64.65
2018-05-02T01:59:37.008Z,64.47
2018-05-02T02:00:36.948Z,64.18
2018-05-02T02:01:36.881Z,63.89
2018-05-02T02:02:36.816Z,64.08
2018-05-02T02:03:36.753Z,63.13
2018-05-02T02:04:36.691Z,62.94
2018-05-02T02:05:36.623Z,62.85
2018-05-02T02:06:36.560Z,62.85
2018-05-02T02:07:36.504Z,62.85
2018-05-02T02:08:36.432Z,62.88
2018-05-02T02:09:36.370Z,63.04
2018-05-02T02:10:36.309Z,63.17
2018-05-02T02:11:36.240Z,63.51
2018-05-02T02:12:36.177Z,62.85
2018-05-02T02:13:36.113Z,62.27
2018-05-02T02:14:36.048Z,62.94
2018-05-02T02:15:35.984Z,62.46
2018-05-02T02:16:35.925Z,62.27
2018-05-02T02:17:35.859Z,62.30
2018-05-02T02:18:35.792Z,62.30
2018-05-02T02:19:35.729Z,62.40
2018-05-02T02:20:35.665Z,62.59
2018-05-02T02:21:35.600Z,63.26
2018-05-02T02:22:35.541Z,62.56
2018-05-02T02:23:35.474Z,62.18
2018-05-02T02:24:35.409Z,62.40
2018-05-02T02:25:35.342Z,62.97
2018-05-02T02:26:35.280Z,62.56
2018-05-02T02:27:35.219Z,62.30
2018-05-02T02:28:35.153Z,62.08
2018-05-02T02:29:35.089Z,62.46
2018-05-02T02:30:35.025Z,62.21
2018-05-02T02:31:34.963Z,62.21
2018-05-02T02:32:34.898Z,62.40
2018-05-02T02:33:34.833Z,61.54
2018-05-02T02:34:34.769Z,61.64
2018-05-02T02:35:34.704Z,62.02
2018-05-02T02:36:34.640Z,62.40
2018-05-02T02:37:34.576Z,61.73
2018-05-02T02:38:34.523Z,62.12
2018-05-02T02:39:34.450Z,62.18
2018-05-02T02:40:34.386Z,62.18
2018-05-02T02:41:34.319Z,62.18
2018-05-02T02:42:34.258Z,62.46
2018-05-02T02:43:34.193Z,63.04
2018-05-02T02:44:34.130Z,62.27
2018-05-02T02:45:34.065Z,62.65
2018-05-02T02:46:33.999Z,63.23
2018-05-02T02:47:33.938Z,63.13
2018-05-02T02:48:33.872Z,63.04
2018-05-02T02:49:33.810Z,63.04
2018-05-02T02:50:33.746Z,64.18
2018-05-02T02:51:33.682Z,63.99
2018-05-02T02:52:33.617Z,63.89
2018-05-02T02:53:33.551Z,63.32
2018-05-02T02:54:33.490Z,63.13
2018-05-02T02:55:33.425Z,63.13
2018-05-02T02:56:33.363Z,62.56
2018-05-02T02:57:33.296Z,62.56
2018-05-02T02:58:33.232Z,62.75
2018-05-02T02:59:33.170Z,63.04
2018-05-02T03:00:33.104Z,63.04
2018-05-02T03:01:33.041Z,64.28
2018-05-02T03:02:32.978Z,64.28
2018-05-02T03:03:32.912Z,64.47
2018-05-02T03:04:32.850Z,64.28
2018-05-02T03:05:32.783Z,64.37
2018-05-02T03:06:32.721Z,64.28
2018-05-02T03:07:32.656Z,64.37
2018-05-02T03:08:32.592Z,64.28
2018-05-02T03:09:32.528Z,64.18
2018-05-02T03:10:32.464Z,65.03
2018-05-02T03:11:32.493Z,64.84
2018-05-02T03:12:32.336Z,65.13
2018-05-02T03:13:32.277Z,64.18
2018-05-02T03:14:32.207Z,64.47
2018-05-02T03:15:32.145Z,64.28
2018-05-02T03:16:32.081Z,64.37
2018-05-02T03:17:32.017Z,64.18
2018-05-02T03:18:31.952Z,63.99
2018-05-02T03:19:31.887Z,63.70
2018-05-02T03:20:31.894Z,64.28
2018-05-02T03:21:31.760Z,64.08
2018-05-02T03:22:31.713Z,64.18
2018-05-02T03:23:31.634Z,64.08
2018-05-02T03:24:31.578Z,63.99
2018-05-02T03:25:31.503Z,63.99
2018-05-02T03:26:31.440Z,64.47
2018-05-02T03:27:31.376Z,64.18
2018-05-02T03:28:31.312Z,63.99
2018-05-02T03:29:31.248Z,64.28
2018-05-02T03:30:31.190Z,63.99
2018-05-02T03:31:31.125Z,64.18
2018-05-02T03:32:31.060Z,64.47
2018-05-02T03:33:30.991Z,64.37
2018-05-02T03:34:30.928Z,64.47
2018-05-02T03:35:30.864Z,64.84
2018-05-02T03:36:30.801Z,65.51
2018-05-02T03:37:30.736Z,65.23
2018-05-02T03:38:30.674Z,65.32
2018-05-02T03:39:30.609Z,65.13
2018-05-02T03:40:30.545Z,64.56
2018-05-02T03:41:30.482Z,64.84
2018-05-02T03:42:30.418Z,64.65
2018-05-02T03:43:30.355Z,65.23
2018-05-02T03:44:30.291Z,64.65
2018-05-02T03:45:30.227Z,65.03
2018-05-02T03:46:30.160Z,64.37
2018-05-02T03:47:30.098Z,64.47
2018-05-02T03:48:30.032Z,64.18
2018-05-02T03:49:29.969Z,65.13
2018-05-02T03:50:29.904Z,64.94
2018-05-02T03:51:29.840Z,64.94
2018-05-02T03:52:29.777Z,65.13
2018-05-02T03:53:29.711Z,65.42
2018-05-02T03:54:29.647Z,65.42
2018-05-02T03:55:29.584Z,65.89
2018-05-02T03:56:29.521Z,65.03
2018-05-02T03:57:29.457Z,64.75
2018-05-02T03:58:29.393Z,65.51
2018-05-02T03:59:29.329Z,64.56
2018-05-02T04:00:29.291Z,64.40
2018-05-02T04:01:29.202Z,64.56
2018-05-02T04:02:29.137Z,64.78
2018-05-02T04:03:29.073Z,64.75
2018-05-02T04:04:29.008Z,65.07
2018-05-02T04:05:28.946Z,64.12
2018-05-02T04:06:28.882Z,64.31
2018-05-02T04:07:28.819Z,63.80
2018-05-02T04:08:28.760Z,62.88
2018-05-02T04:09:28.690Z,62.59
2018-05-02T04:10:28.627Z,62.59
2018-05-02T04:11:28.561Z,62.88
2018-05-02T04:12:28.497Z,62.30
2018-05-02T04:13:28.432Z,62.59
2018-05-02T04:14:28.370Z,62.97
2018-05-02T04:15:28.305Z,63.07
2018-05-02T04:16:28.241Z,63.64
2018-05-02T04:17:28.177Z,63.35
2018-05-02T04:18:28.114Z,64.31
2018-05-02T04:19:28.050Z,64.50
2018-05-02T04:20:27.987Z,64.50
2018-05-02T04:21:27.921Z,64.65
2018-05-02T04:22:27.858Z,65.03
2018-05-02T04:23:27.794Z,64.75
2018-05-02T04:24:27.731Z,65.36
2018-05-02T04:25:27.666Z,65.36
2018-05-02T04:26:27.603Z,66.11
2018-05-02T04:27:27.539Z,65.92
2018-05-02T04:28:27.474Z,66.31
2018-05-02T04:29:27.412Z,66.27
2018-05-02T04:30:27.346Z,66.40
2018-05-02T04:31:27.284Z,66.37
2018-05-02T04:32:27.234Z,66.46
2018-05-02T04:33:27.154Z,66.66
2018-05-02T04:34:27.103Z,67.13
2018-05-02T04:35:27.030Z,67.22
2018-05-02T04:36:26.970Z,67.32
2018-05-02T04:37:26.897Z,67.03
2018-05-02T04:38:26.835Z,67.03
2018-05-02T04:39:26.772Z,67.99
2018-05-02T04:40:26.707Z,67.80
2018-05-02T04:41:26.646Z,67.99
2018-05-02T04:42:26.579Z,66.85
2018-05-02T04:43:26.516Z,67.35
2018-05-02T04:44:26.454Z,67.16
2018-05-02T04:45:26.392Z,66.46
2018-05-02T04:46:26.325Z,65.26
2018-05-02T04:47:26.260Z,65.55
2018-05-02T04:48:26.196Z,64.50
2018-05-02T04:49:26.131Z,64.31
2018-05-02T04:50:26.067Z,63.83
2018-05-02T04:51:26.005Z,63.17
2018-05-02T04:52:25.942Z,63.17
2018-05-02T04:53:25.875Z,62.97
2018-05-02T04:54:25.812Z,62.68
2018-05-02T04:55:25.790Z,62.21
2018-05-02T04:56:25.684Z,62.12
2018-05-02T04:57:25.620Z,62.21
2018-05-02T04:58:25.557Z,62.68
2018-05-02T04:59:25.537Z,62.97
2018-05-02T05:00:25.428Z,63.17
2018-05-02T05:01:25.366Z,62.78
2018-05-02T05:02:25.303Z,62.30
2018-05-02T05:03:25.238Z,62.49
2018-05-02T05:04:25.173Z,63.07
2018-05-02T05:05:25.110Z,62.88
2018-05-02T05:06:25.044Z,62.97
2018-05-02T05:07:24.981Z,63.07
2018-05-02T05:08:24.923Z,62.97
2018-05-02T05:09:24.854Z,63.54
2018-05-02T05:10:24.790Z,64.69
2018-05-02T05:11:24.725Z,64.97
2018-05-02T05:12:24.662Z,65.36
2018-05-02T05:13:24.597Z,66.11
2018-05-02T05:14:24.534Z,66.78
2018-05-02T05:15:24.472Z,66.78
2018-05-02T05:16:24.401Z,66.40
2018-05-02T05:17:24.339Z,66.11
2018-05-02T05:18:24.290Z,66.50
2018-05-02T05:19:24.214Z,66.88
2018-05-02T05:20:24.150Z,67.64
2018-05-02T05:21:24.085Z,67.26
2018-05-02T05:22:24.022Z,66.97
2018-05-02T05:23:23.958Z,67.16
2018-05-02T05:24:23.896Z,67.07
2018-05-02T05:25:23.832Z,66.97
2018-05-02T05:26:23.767Z,67.16
2018-05-02T05:27:23.705Z,67.64
2018-05-02T05:28:23.640Z,68.21
2018-05-02T05:29:23.572Z,67.55
2018-05-02T05:30:23.511Z,67.93
2018-05-02T05:31:23.448Z,66.97
2018-05-02T05:32:23.385Z,67.16
2018-05-02T05:33:23.324Z,66.78
2018-05-02T05:34:23.257Z,66.88
2018-05-02T05:35:23.254Z,67.45
2018-05-02T05:36:23.130Z,67.07
2018-05-02T05:37:23.064Z,66.97
2018-05-02T05:38:23.003Z,66.88
2018-05-02T05:39:22.939Z,66.69
2018-05-02T05:40:22.875Z,67.16
2018-05-02T05:41:22.810Z,66.53
2018-05-02T05:42:22.758Z,66.15
2018-05-02T05:43:22.689Z,66.15
2018-05-02T05:44:22.622Z,65.77
2018-05-02T05:45:22.557Z,65.73
2018-05-02T05:46:22.492Z,65.67
2018-05-02T05:47:22.430Z,65.64
2018-05-02T05:48:22.366Z,66.24
2018-05-02T05:49:22.304Z,66.11
2018-05-02T05:50:22.241Z,65.92
2018-05-02T05:51:22.170Z,66.50
2018-05-02T05:52:22.112Z,66.59
2018-05-02T05:53:22.063Z,66.59
2018-05-02T05:54:22.067Z,65.92
2018-05-02T05:55:21.920Z,66.34
2018-05-02T05:56:21.860Z,66.44
2018-05-02T05:57:21.793Z,66.44
2018-05-02T05:58:21.730Z,66.63
2018-05-02T05:59:21.666Z,66.34
2018-05-02T06:00:21.607Z,66.72
2018-05-02T06:01:21.540Z,66.34
2018-05-02T06:02:21.475Z,66.82
2018-05-02T06:03:21.412Z,66.44
2018-05-02T06:04:21.348Z,66.15
2018-05-02T06:05:21.286Z,65.77
2018-05-02T06:06:21.224Z,66.24
2018-05-02T06:07:21.161Z,65.96
2018-05-02T06:08:21.094Z,65.29
2018-05-02T06:09:21.029Z,65.39
2018-05-02T06:10:20.968Z,65.39
2018-05-02T06:11:20.903Z,65.10
2018-05-02T06:12:20.842Z,64.81
2018-05-02T06:13:20.778Z,65.00
2018-05-02T06:14:20.716Z,64.72
2018-05-02T06:15:20.649Z,64.91
2018-05-02T06:16:20.591Z,65.48
2018-05-02T06:17:20.523Z,65.29
2018-05-02T06:18:20.458Z,65.48
2018-05-02T06:19:20.397Z,65.39
2018-05-02T06:20:20.340Z,65.67
2018-05-02T06:21:20.270Z,64.24
2018-05-02T06:22:20.206Z,64.62
2018-05-02T06:23:20.142Z,63.67
2018-05-02T06:24:20.079Z,64.05
2018-05-02T06:25:20.017Z,64.43
2018-05-02T06:26:19.952Z,63.86
2018-05-02T06:27:19.887Z,64.15
2018-05-02T06:28:19.824Z,62.91
2018-05-02T06:29:19.765Z,63.29
2018-05-02T06:30:19.697Z,63.96
2018-05-02T06:31:19.635Z,63.51
2018-05-02T06:32:19.573Z,63.60
2018-05-02T06:33:19.507Z,63.60
2018-05-02T06:34:19.446Z,62.84
2018-05-02T06:35:19.392Z,62.56
2018-05-02T06:36:19.318Z,62.84
2018-05-02T06:37:19.255Z,63.04
2018-05-02T06:38:19.195Z,63.13
2018-05-02T06:39:19.127Z,62.84
2018-05-02T06:40:19.067Z,62.56
2018-05-02T06:41:19.003Z,62.94
2018-05-02T06:42:18.940Z,62.84
2018-05-02T06:43:18.876Z,63.13
2018-05-02T06:44:18.811Z,62.94
2018-05-02T06:45:18.748Z,62.56
2018-05-02T06:46:18.685Z,62.56
2018-05-02T06:47:18.623Z,62.56
2018-05-02T06:48:18.558Z,62.46
2018-05-02T06:49:18.528Z,62.27
2018-05-02T06:50:18.490Z,61.60
2018-05-02T06:51:18.369Z,61.70
2018-05-02T06:52:18.307Z,61.13
2018-05-02T06:53:18.248Z,61.60
2018-05-02T06:54:18.180Z,62.21
2018-05-02T06:55:18.117Z,62.59
2018-05-02T06:56:18.056Z,61.89
2018-05-02T06:57:17.990Z,62.08
2018-05-02T06:58:17.928Z,62.37
2018-05-02T06:59:17.929Z,62.56
2018-05-02T07:00:17.805Z,61.70
2018-05-02T07:01:17.741Z,62.37
2018-05-02T07:02:17.674Z,61.70
2018-05-02T07:03:17.613Z,61.70
2018-05-02T07:04:17.549Z,61.60
2018-05-02T07:05:17.487Z,62.08
2018-05-02T07:06:17.424Z,62.08
2018-05-02T07:07:17.396Z,61.83
2018-05-02T07:08:17.301Z,62.40
2018-05-02T07:09:17.236Z,62.46
2018-05-02T07:10:17.174Z,62.40
2018-05-02T07:11:17.111Z,62.49
2018-05-02T07:12:17.048Z,61.92
2018-05-02T07:13:16.984Z,61.83
2018-05-02T07:14:16.921Z,60.58
2018-05-02T07:15:16.860Z,60.78
2018-05-02T07:16:16.798Z,61.25
2018-05-02T07:17:16.734Z,61.63
2018-05-02T07:18:16.671Z,61.92
2018-05-02T07:19:16.605Z,61.25
2018-05-02T07:20:16.546Z,61.07
2018-05-02T07:21:16.482Z,60.68
2018-05-02T07:22:16.418Z,60.87
2018-05-02T07:23:16.382Z,61.16
2018-05-02T07:24:16.295Z,61.25
2018-05-02T07:25:16.239Z,60.87
2018-05-02T07:26:16.167Z,60.97
2018-05-02T07:27:16.106Z,61.44
2018-05-02T07:28:16.042Z,61.73
2018-05-02T07:29:15.980Z,61.54
2018-05-02T07:30:15.918Z,60.97
2018-05-02T07:31:15.856Z,61.00
2018-05-02T07:32:15.796Z,60.90
2018-05-02T07:33:15.728Z,60.61
2018-05-02T07:34:15.667Z,60.81
2018-05-02T07:35:15.609Z,60.52
2018-05-02T07:36:15.542Z,60.90
2018-05-02T07:37:15.479Z,60.81
2018-05-02T07:38:15.417Z,59.76
2018-05-02T07:39:15.364Z,59.56
2018-05-02T07:40:15.291Z,60.33
2018-05-02T07:41:15.230Z,60.14
2018-05-02T07:42:15.219Z,60.24
2018-05-02T07:43:15.107Z,61.19
2018-05-02T07:44:15.046Z,61.38
2018-05-02T07:45:14.979Z,60.81
2018-05-02T07:46:14.916Z,60.74
2018-05-02T07:47:14.854Z,60.84
2018-05-02T07:48:14.795Z,60.07
2018-05-02T07:49:14.729Z,59.59
2018-05-02T07:50:14.666Z,59.78
2018-05-02T07:51:14.605Z,60.84
2018-05-02T07:52:14.540Z,60.17
2018-05-02T07:53:14.480Z,60.36
2018-05-02T07:54:14.416Z,60.17
2018-05-02T07:55:14.355Z,59.22
2018-05-02T07:56:14.293Z,59.59
2018-05-02T07:57:14.230Z,59.88
2018-05-02T07:58:14.166Z,59.78
2018-05-02T07:59:14.108Z,59.88
2018-05-02T08:00:14.045Z,59.78
2018-05-02T08:01:13.980Z,59.41
2018-05-02T08:02:13.918Z,58.73
2018-05-02T08:03:13.853Z,58.67
2018-05-02T08:04:13.792Z,58.67
2018-05-02T08:05:13.733Z,59.15
2018-05-02T08:06:13.671Z,59.15
2018-05-02T08:07:13.608Z,58.95
2018-05-02T08:08:13.547Z,59.44
2018-05-02T08:09:13.499Z,59.53
2018-05-02T08:10:13.419Z,59.15
2018-05-02T08:11:13.363Z,59.05
2018-05-02T08:12:13.300Z,58.29
2018-05-02T08:13:13.234Z,59.15
2018-05-02T08:14:13.173Z,58.48
2018-05-02T08:15:13.112Z,58.22
2018-05-02T08:16:13.057Z,57.93
2018-05-02T08:17:12.993Z,57.36
2018-05-02T08:18:12.923Z,57.46
2018-05-02T08:19:12.864Z,57.26
2018-05-02T08:20:12.807Z,56.79
2018-05-02T08:21:12.744Z,56.88
2018-05-02T08:22:12.693Z,56.69
2018-05-02T08:23:12.619Z,56.31
2018-05-02T08:24:12.552Z,56.50
2018-05-02T08:25:12.510Z,56.98
2018-05-02T08:26:12.434Z,56.31
2018-05-02T08:27:12.372Z,56.50
2018-05-02T08:28:12.390Z,56.69
2018-05-02T08:29:12.248Z,56.40
2018-05-02T08:30:12.194Z,56.60
2018-05-02T08:31:12.127Z,56.31
2018-05-02T08:32:12.064Z,56.50
2018-05-02T08:33:12.007Z,56.40
2018-05-02T08:34:11.943Z,56.79
2018-05-02T08:35:11.879Z,55.93
2018-05-02T08:36:11.818Z,55.93
2018-05-02T08:37:11.756Z,55.83
2018-05-02T08:38:11.695Z,56.12
2018-05-02T08:39:11.634Z,56.69
2018-05-02T08:40:11.572Z,56.31
2018-05-02T08:41:11.510Z,56.60
2018-05-02T08:42:11.450Z,56.31
2018-05-02T08:43:11.389Z,55.54
2018-05-02T08:44:11.327Z,55.64
2018-05-02T08:45:11.265Z,55.47
2018-05-02T08:46:11.203Z,55.38
2018-05-02T08:47:11.143Z,55.47
2018-05-02T08:48:11.139Z,55.19
2018-05-02T08:49:11.023Z,55.29
2018-05-02T08:50:10.958Z,55.38
2018-05-02T08:51:10.898Z,55.10
2018-05-02T08:52:10.843Z,55.29
2018-05-02T08:53:10.778Z,55.31
2018-05-02T08:54:10.712Z,55.88
2018-05-02T08:55:10.653Z,55.31
2018-05-02T08:56:10.591Z,55.31
2018-05-02T08:57:10.529Z,55.22
2018-05-02T08:58:10.467Z,55.02
2018-05-02T08:59:10.406Z,54.16
2018-05-02T09:00:10.345Z,54.93
2018-05-02T09:01:10.284Z,54.93
2018-05-02T09:02:10.223Z,54.83
2018-05-02T09:03:10.163Z,54.93
2018-05-02T09:04:10.102Z,54.93
2018-05-02T09:05:10.038Z,53.62
2018-05-02T09:06:09.978Z,53.91
2018-05-02T09:07:09.918Z,53.71
2018-05-02T09:08:09.857Z,53.71
2018-05-02T09:09:09.792Z,53.52
2018-05-02T09:10:09.738Z,53.23
2018-05-02T09:11:09.677Z,53.14
2018-05-02T09:12:09.615Z,52.95
2018-05-02T09:13:09.570Z,53.45
2018-05-02T09:14:09.493Z,53.45
2018-05-02T09:15:09.432Z,53.74
2018-05-02T09:16:09.373Z,54.00
2018-05-02T09:17:09.310Z,53.81
2018-05-02T09:18:09.251Z,53.62
2018-05-02T09:19:09.189Z,53.62
2018-05-02T09:20:09.131Z,53.33
2018-05-02T09:21:09.073Z,53.33
2018-05-02T09:22:09.009Z,53.62
2018-05-02T09:23:08.952Z,52.95
2018-05-02T09:24:08.888Z,53.14
2018-05-02T09:25:08.827Z,53.64
2018-05-02T09:26:08.769Z,53.42
2018-05-02T09:27:08.706Z,53.36
2018-05-02T09:28:08.646Z,53.74
2018-05-02T09:29:08.588Z,53.36
2018-05-02T09:30:08.525Z,54.03
2018-05-02T09:31:08.465Z,54.10
2018-05-02T09:32:08.405Z,54.10
2018-05-02T09:33:08.344Z,54.77
2018-05-02T09:34:08.288Z,54.96
2018-05-02T09:35:08.223Z,54.86
2018-05-02T09:36:08.162Z,54.10
2018-05-02T09:37:08.102Z,53.71
2018-05-02T09:38:08.047Z,53.33
2018-05-02T09:39:07.983Z,53.62
2018-05-02T09:40:07.922Z,53.71
2018-05-02T09:41:07.861Z,54.00
2018-05-02T09:42:07.800Z,53.91
2018-05-02T09:43:07.754Z,53.71
2018-05-02T09:44:07.759Z,53.71
2018-05-02T09:45:07.620Z,54.00
2018-05-02T09:46:07.568Z,54.10
2018-05-02T09:47:07.502Z,54.57
2018-05-02T09:48:07.453Z,55.24
2018-05-02T09:49:07.379Z,55.24
2018-05-02T09:50:07.320Z,55.34
2018-05-02T09:51:07.259Z,55.82
2018-05-02T09:52:07.239Z,55.15
2018-05-02T09:53:07.139Z,55.05
2018-05-02T09:54:07.078Z,55.15
2018-05-02T09:55:07.018Z,55.05
2018-05-02T09:56:06.956Z,55.15
2018-05-02T09:57:06.915Z,55.15
2018-05-02T09:58:06.939Z,55.34
2018-05-02T09:59:06.820Z,55.15
2018-05-02T10:00:06.715Z,55.15
2018-05-02T10:01:06.652Z,55.18
2018-05-02T10:02:06.593Z,55.08
2018-05-02T10:03:06.539Z,54.99
2018-05-02T10:04:06.492Z,54.41
2018-05-02T10:05:06.413Z,53.55
2018-05-02T10:06:06.352Z,53.64
2018-05-02T10:07:06.293Z,53.74
2018-05-02T10:08:06.230Z,53.67
2018-05-02T10:09:06.168Z,53.67
2018-05-02T10:10:06.110Z,53.67
2018-05-02T10:11:06.049Z,53.77
2018-05-02T10:12:05.988Z,53.67
2018-05-02T10:13:05.928Z,53.77
2018-05-02T10:14:05.867Z,53.96
2018-05-02T10:15:05.812Z,54.34
2018-05-02T10:16:05.747Z,54.05
2018-05-02T10:17:05.690Z,54.05
2018-05-02T10:18:05.627Z,54.05
2018-05-02T10:19:05.585Z,53.67
2018-05-02T10:20:05.508Z,53.96
2018-05-02T10:21:05.447Z,53.96
2018-05-02T10:22:05.386Z,53.77
2018-05-02T10:23:05.329Z,53.77
2018-05-02T10:24:05.267Z,53.19
2018-05-02T10:25:05.208Z,53.70
2018-05-02T10:26:05.147Z,52.64
2018-05-02T10:27:05.084Z,52.36
2018-05-02T10:28:05.031Z,52.64
2018-05-02T10:29:04.971Z,52.93
2018-05-02T10:30:04.908Z,52.23
2018-05-02T10:31:04.847Z,52.52
2018-05-02T10:32:04.789Z,52.42
2018-05-02T10:33:04.732Z,52.16
2018-05-02T10:34:04.670Z,52.52
2018-05-02T10:35:04.612Z,53.67
2018-05-02T10:36:04.553Z,52.81
2018-05-02T10:37:04.492Z,52.62
2018-05-02T10:38:04.430Z,53.67
2018-05-02T10:39:04.373Z,53.38
2018-05-02T10:40:04.312Z,53.19
2018-05-02T10:41:04.252Z,53.67
2018-05-02T10:42:04.192Z,53.41
2018-05-02T10:43:04.148Z,53.31
2018-05-02T10:44:04.076Z,53.70
2018-05-02T10:45:04.019Z,53.79
2018-05-02T10:46:03.953Z,53.50
2018-05-02T10:47:03.897Z,53.70
2018-05-02T10:48:03.836Z,53.31
2018-05-02T10:49:03.780Z,52.45
2018-05-02T10:50:03.725Z,51.97
2018-05-02T10:51:03.659Z,52.07
2018-05-02T10:52:03.600Z,52.55
2018-05-02T10:53:03.539Z,52.55
2018-05-02T10:54:03.479Z,52.36
2018-05-02T10:55:03.428Z,52.26
2018-05-02T10:56:03.398Z,53.34
2018-05-02T10:57:03.300Z,52.67
2018-05-02T10:58:03.318Z,51.90
2018-05-02T10:59:03.444Z,52.00
2018-05-02T11:00:03.127Z,51.23
2018-05-02T11:01:03.062Z,51.42
2018-05-02T11:02:03.004Z,51.90
2018-05-02T11:03:02.944Z,52.19
2018-05-02T11:04:02.885Z,52.09
2018-05-02T11:05:02.832Z,51.71
2018-05-02T11:06:02.766Z,51.14
2018-05-02T11:07:02.719Z,51.45
2018-05-02T11:08:02.644Z,51.16
2018-05-02T11:09:02.591Z,51.35
2018-05-02T11:10:02.526Z,51.25
2018-05-02T11:11:02.474Z,51.16
2018-05-02T11:12:02.420Z,51.35
2018-05-02T11:13:02.371Z,51.61
2018-05-02T11:14:02.290Z,51.14
2018-05-02T11:15:02.241Z,51.16
2018-05-02T11:16:02.177Z,51.83
2018-05-02T11:17:02.115Z,51.35
2018-05-02T11:18:02.057Z,50.78
2018-05-02T11:19:01.998Z,51.25
2018-05-02T11:20:01.941Z,51.16
2018-05-02T11:21:01.883Z,51.35
2018-05-02T11:22:01.880Z,51.54
2018-05-02T11:23:01.762Z,50.87
2018-05-02T11:24:01.703Z,51.06
2018-05-02T11:25:01.645Z,52.02
2018-05-02T11:26:01.588Z,51.54
2018-05-02T11:27:01.533Z,51.45
2018-05-02T11:28:01.470Z,51.45
2018-05-02T11:29:01.419Z,51.45
2018-05-02T11:30:01.358Z,50.90
2018-05-02T11:31:01.297Z,50.61
2018-05-02T11:32:01.235Z,50.61
2018-05-02T11:33:01.175Z,50.99
2018-05-02T11:34:01.118Z,51.37
2018-05-02T11:35:01.059Z,50.03
2018-05-02T11:36:01.002Z,50.51
2018-05-02T11:37:00.941Z,50.42
2018-05-02T11:38:00.886Z,50.13
2018-05-02T11:39:00.826Z,51.18
2018-05-02T11:40:00.780Z,50.80
2018-05-02T11:41:00.710Z,50.80
2018-05-02T11:42:00.650Z,50.61
2018-05-02T11:43:00.591Z,50.70
2018-05-02T11:44:00.531Z,50.70
2018-05-02T11:45:00.473Z,51.47
2018-05-02T11:46:00.416Z,50.54
2018-05-02T11:47:00.357Z,50.54
2018-05-02T11:48:00.300Z,50.15
2018-05-02T11:49:00.240Z,49.93
2018-05-02T11:50:00.180Z,49.46
2018-05-02T11:51:00.123Z,50.03
2018-05-02T11:52:00.065Z,49.93
2018-05-02T11:53:00.006Z,50.23
2018-05-02T11:53:59.947Z,50.80
2018-05-02T11:54:59.888Z,50.51
2018-05-02T11:55:59.827Z,50.80
2018-05-02T11:56:59.772Z,50.51
2018-05-02T11:57:59.713Z,50.51
2018-05-02T11:58:59.659Z,50.80
2018-05-02T11:59:59.598Z,50.80
2018-05-02T12:00:59.540Z,50.03
2018-05-02T12:01:59.480Z,50.13
2018-05-02T12:02:59.421Z,50.61
2018-05-02T12:03:59.362Z,50.70
2018-05-02T12:04:59.304Z,50.51
2018-05-02T12:05:59.253Z,50.03
2018-05-02T12:06:59.189Z,50.15
2018-05-02T12:07:59.129Z,50.44
2018-05-02T12:08:59.072Z,50.73
2018-05-02T12:09:59.012Z,50.34
2018-05-02T12:10:58.955Z,50.05
2018-05-02T12:11:58.897Z,50.44
2018-05-02T12:12:58.837Z,51.31
2018-05-02T12:13:58.780Z,50.92
2018-05-02T12:14:58.722Z,49.87
2018-05-02T12:15:58.725Z,50.82
2018-05-02T12:16:58.618Z,50.82
2018-05-02T12:17:58.544Z,50.73
2018-05-02T12:18:58.499Z,50.44
2018-05-02T12:19:58.464Z,50.63
2018-05-02T12:20:58.385Z,50.82
2018-05-02T12:21:58.317Z,50.82
2018-05-02T12:22:58.255Z,50.54
2018-05-02T12:23:58.198Z,49.96
2018-05-02T12:24:58.138Z,50.18
2018-05-02T12:25:58.082Z,49.69
2018-05-02T12:26:58.025Z,49.99
2018-05-02T12:27:57.967Z,50.15
2018-05-02T12:28:57.905Z,50.15
2018-05-02T12:29:57.846Z,50.54
2018-05-02T12:30:57.788Z,50.44
2018-05-02T12:31:57.730Z,50.73
2018-05-02T12:32:57.672Z,50.63
2018-05-02T12:33:57.613Z,51.11
2018-05-02T12:34:57.571Z,51.79
2018-05-02T12:35:57.504Z,51.31
2018-05-02T12:36:57.435Z,51.40
2018-05-02T12:37:57.379Z,51.31
2018-05-02T12:38:57.321Z,50.44
2018-05-02T12:39:57.267Z,50.54
2018-05-02T12:40:57.327Z,50.73
2018-05-02T12:41:57.148Z,50.82
2018-05-02T12:42:57.090Z,50.73
2018-05-02T12:43:57.035Z,50.73
2018-05-02T12:44:56.973Z,50.34
2018-05-02T12:45:56.916Z,50.44
2018-05-02T12:46:56.855Z,49.77
2018-05-02T12:47:56.801Z,49.38
2018-05-02T12:48:56.737Z,49.67
2018-05-02T12:49:56.681Z,49.19
2018-05-02T12:50:56.621Z,48.71
2018-05-02T12:51:56.563Z,49.19